Latest Weather Observations for Cummins Airport

IDS60801

Issued at 10:05 am CDT Sunday 26 October 2014 (issued every 30 minutes, with the page automatically refreshed every 10 minutes)

About weather observations | Map of weather stations | Latest weather observations for SA | Other Formats
Station Details ID: 018217 Name: CUMMINS AERO Lat: -34.25 Lon: 135.71 Height: 60.11 m
Data from the previous 72 hours. | See also: Recent months at Cummins Airport
Date/Time
CDT
Temp
°C
App
Temp
°C
Dew
Point
Rel
Hum
%
Delta-T
°C
Wind Press
QNH
hPa
Press
MSL
hPa
Rain
since 9 am
mm
Dir
 
Spd
km/h
Gust
km/h
Spd
kts
Gust
kts
26/10:00am 21.4 19.3 14.6 65 4.0 NNE 19 26 10 14 1010.0 1010.0 0.0
26/09:30am 19.6 16.3 15.0 75 2.7 NNE 26 35 14 19 1009.8 1009.8 0.0
26/09:00am 19.4 16.5 15.1 76 2.5 NNE 24 32 13 17 1011.1 1011.0 0.0
26/08:30am 18.4 16.6 14.5 78 2.3 NE 17 24 9 13 1010.1 1010.1 0.0
26/08:00am 17.5 15.3 14.4 82 1.8 E 19 24 10 13 1011.4 1011.3 0.0
26/07:45am 17.6 14.6 13.7 78 2.2 SSW 22 30 12 16 1012.7 1012.6 0.0
26/07:30am 18.0 17.8 12.9 72 2.9 SE 6 11 3 6 1010.5 1010.5 0.0
26/07:00am 17.8 16.1 12.3 70 3.1 SE 13 20 7 11 1009.4 1009.4 0.0
26/06:30am 16.8 15.2 12.7 77 2.3 SE 13 15 7 8 1009.8 1009.8 0.0
26/06:00am 16.0 13.4 13.3 84 1.5 ESE 19 24 10 13 1009.3 1009.3 0.0
26/05:55am 15.7 13.1 13.2 85 1.4 SE 19 24 10 13 1009.5 1009.5 0.0
26/05:30am 15.5 14.1 13.5 88 1.1 SSE 13 17 7 9 1011.6 1011.5 0.0
26/05:00am 15.3 14.4 13.7 90 0.9 SE 11 13 6 7 1012.8 1012.7 0.0
26/04:30am 15.5 13.3 13.3 87 1.2 NW 17 32 9 17 1013.8 1013.7 0.0
26/04:15am 15.4 10.8 13.6 89 1.0 NW 30 59 16 32 1015.4 1015.3 0.0
26/04:13am 15.4 12.7 13.4 88 1.1 NW 20 30 11 16 1013.4 1013.3 0.0
26/04:00am 15.2 14.8 13.1 87 1.2 ENE 7 11 4 6 1011.4 1011.3 0.0
26/03:30am 15.2 14.6 13.4 89 1.0 ENE 9 15 5 8 1011.0 1010.9 0.0
26/03:00am 14.8 14.1 13.3 91 0.8 ENE 9 13 5 7 1011.4 1011.3 0.0
26/02:30am 14.8 13.8 13.3 91 0.8 E 11 15 6 8 1011.7 1011.6 0.0
26/02:00am 14.4 13.6 13.0 91 0.8 E 9 11 5 6 1012.8 1012.7 0.0
26/01:30am 14.5 13.6 12.7 89 1.0 ENE 9 15 5 8 1012.9 1012.8 0.0
26/01:00am 14.6 14.1 12.5 87 1.1 E 7 11 4 6 1013.3 1013.2 0.0
26/12:30am 14.7 13.5 12.7 88 1.1 E 11 13 6 7 1013.6 1013.5 0.0
26/12:00am 14.6 13.7 12.5 87 1.1 E 9 13 5 7 1014.2 1014.1 0.0
 
Date/Time
CDT
Temp
°C
App
Temp
°C
Dew
Point
Rel
Hum
%
Delta-T
°C
Wind Press
QNH
hPa
Press
MSL
hPa
Rain
since 9 am
mm
Dir
 
Spd
km/h
Gust
km/h
Spd
kts
Gust
kts
25/11:30pm 14.9 13.7 12.8 87 1.2 E 11 17 6 9 1014.9 1014.8 0.0
25/11:00pm 14.8 13.5 12.5 86 1.3 E 11 15 6 8 1015.1 1015.0 0.0
25/10:30pm 14.7 13.0 12.4 86 1.3 E 13 17 7 9 1015.5 1015.4 0.0
25/10:00pm 14.7 13.4 12.4 86 1.3 E 11 13 6 7 1016.1 1016.0 0.0
25/09:30pm 15.0 14.0 12.3 84 1.5 E 9 13 5 7 1015.8 1015.7 0.0
25/09:00pm 15.7 14.3 12.3 80 1.9 E 11 17 6 9 1015.8 1015.7 0.0
25/08:30pm 16.7 14.3 12.7 77 2.2 SE 17 20 9 11 1015.7 1015.6 0.0
25/08:00pm 17.8 15.4 12.7 72 2.9 SE 17 20 9 11 1015.5 1015.4 0.0
25/07:30pm 19.4 16.7 12.9 66 3.7 ESE 19 24 10 13 1015.1 1015.0 0.0
25/07:00pm 20.7 17.7 12.7 60 4.5 SE 20 26 11 14 1015.1 1015.0 0.0
25/06:30pm 22.9 19.2 12.8 53 5.8 SE 24 28 13 15 1014.9 1014.8 0.0
25/06:00pm 25.5 24.5 12.4 44 7.6 S 9 20 5 11 1014.6 1014.5 0.0
25/05:30pm 25.5 23.5 10.1 38 8.5 SSE 11 17 6 9 1014.5 1014.4 0.0
25/05:00pm 24.4 22.6 11.0 43 7.5 S 11 19 6 10 1015.0 1014.9 0.0
25/04:30pm 24.8 22.9 11.7 44 7.4 WSW 13 20 7 11 1015.3 1015.2 0.0
25/04:00pm 25.1 22.5 12.0 44 7.5 W 17 24 9 13 1015.4 1015.3 0.0
25/03:30pm 25.5 22.3 12.0 43 7.7 W 20 28 11 15 1015.6 1015.5 0.0
25/03:00pm 25.9 23.2 11.6 40 8.2 WNW 17 30 9 16 1015.7 1015.6 0.0
25/02:30pm 25.7 23.2 11.1 40 8.2 SW 15 24 8 13 1015.9 1015.8 0.0
25/02:00pm 25.4 22.8 10.8 40 8.2 W 15 20 8 11 1016.3 1016.2 0.0
25/01:30pm 24.7 22.9 10.9 42 7.7 WSW 11 19 6 10 1016.5 1016.4 0.0
25/01:00pm 23.7 21.9 10.7 44 7.2 WNW 11 19 6 10 1016.8 1016.7 0.0
25/12:30pm 23.5 22.3 11.5 47 6.7 W 9 19 5 10 1017.1 1017.0 0.0
25/12:00pm 21.9 20.6 11.3 51 5.9 W 9 20 5 11 1017.6 1017.5 0.0
25/11:30am 21.2 19.6 11.5 54 5.4 SSW 11 15 6 8 1017.8 1017.7 0.0
25/11:00am 20.1 19.0 11.8 59 4.6 W 9 19 5 10 1018.3 1018.2 0.0
25/10:30am 19.5 18.0 11.8 61 4.3 SW 11 15 6 8 1018.3 1018.2 0.0
25/10:00am 18.5 17.0 12.0 66 3.6 W 11 15 6 8 1018.3 1018.2 0.0
25/09:30am 17.5 16.3 11.5 68 3.3 SW 9 15 5 8 1018.3 1018.2 0.0
25/09:00am 16.6 15.4 11.7 73 2.7 SSW 9 19 5 10 1018.4 1018.3 0.0
25/08:30am 15.9 14.8 11.9 77 2.2 S 9 11 5 6 1018.5 1018.4 0.0
25/08:00am 15.3 14.4 12.6 84 1.5 S 9 11 5 6 1018.6 1018.5 0.0
25/07:30am 14.4 13.6 13.0 91 0.8 W 9 11 5 6 1018.8 1018.7 0.0
25/07:00am 14.1 13.4 13.1 94 0.6 W 9 13 5 7 1018.8 1018.7 0.0
25/06:30am 13.9 13.8 13.4 97 0.3 SSW 6 7 3 4 1018.4 1018.3 0.0
25/06:00am 13.6 13.5 13.4 99 0.1 SSW 6 9 3 5 1017.9 1017.8 0.0
25/05:30am 13.4 13.1 13.2 99 0.1 WSW 7 9 4 5 1017.6 1017.5 0.0
25/05:00am 13.0 12.5 12.8 99 0.1 S 7 9 4 5 1017.1 1017.0 0.0
25/04:30am 12.5 11.5 12.3 99 0.1 S 9 11 5 6 1016.8 1016.7 0.0
25/04:00am 12.2 10.4 12.0 99 0.1 SSW 13 19 7 10 1016.5 1016.4 0.0
25/03:30am 9.9 7.7 9.3 96 0.3 S 11 13 6 7 1016.3 1016.2 0.0
25/03:00am 9.5 9.1 8.4 93 0.5 CALM 0 0 0 0 1016.1 1016.0 0.0
25/02:30am 10.0 8.7 9.1 94 0.4 SSE 6 7 3 4 1015.9 1015.8 0.0
25/02:00am 10.9 9.6 10.1 95 0.4 S 7 9 4 5 1016.3 1016.2 0.0
25/01:30am 11.3 9.5 10.7 96 0.3 SSW 11 13 6 7 1016.6 1016.5 0.0
25/01:00am 11.9 10.2 11.3 96 0.3 S 11 13 6 7 1016.9 1016.8 0.0
25/12:30am 11.8 10.0 10.9 94 0.5 S 11 13 6 7 1017.0 1016.9 0.0
25/12:00am 11.7 10.1 10.3 91 0.7 SSW 9 11 5 6 1017.0 1016.9 0.0
 
Date/Time
CDT
Temp
°C
App
Temp
°C
Dew
Point
Rel
Hum
%
Delta-T
°C
Wind Press
QNH
hPa
Press
MSL
hPa
Rain
since 9 am
mm
Dir
 
Spd
km/h
Gust
km/h
Spd
kts
Gust
kts
24/11:30pm 12.5 11.5 10.9 90 0.8 S 7 11 4 6 1017.2 1017.1 0.0
24/11:00pm 13.4 11.4 11.6 89 1.0 S 13 15 7 8 1017.0 1016.9 0.0
24/10:30pm 14.1 12.7 12.1 88 1.1 S 11 15 6 8 1016.9 1016.8 0.0
24/10:00pm 14.7 13.2 12.0 84 1.5 SSW 11 15 6 8 1016.6 1016.5 0.0
24/09:30pm 15.6 14.5 12.0 79 2.0 S 9 11 5 6 1016.3 1016.2 0.0
24/09:00pm 17.0 15.3 11.3 69 3.1 SSW 11 15 6 8 1015.9 1015.8 0.0
24/08:30pm 18.3 16.4 11.8 66 3.6 S 13 17 7 9 1015.3 1015.2 0.0
24/08:00pm 19.5 16.8 11.8 61 4.3 SSW 17 20 9 11 1015.0 1014.9 0.0
24/07:30pm 21.2 18.5 11.8 55 5.3 SSW 17 22 9 12 1014.5 1014.4 0.0
24/07:00pm 22.2 18.7 11.0 49 6.2 SSW 20 28 11 15 1014.1 1014.0 0.0
24/06:30pm 24.0 19.8 11.0 44 7.3 SSW 24 32 13 17 1013.7 1013.6 0.0
24/06:00pm 26.0 21.9 11.4 40 8.3 SSW 24 32 13 17 1013.4 1013.3 0.0
24/05:30pm 25.6 21.3 10.6 39 8.4 SSW 24 32 13 17 1013.1 1013.0 0.0
24/05:00pm 27.6 22.4 10.3 34 9.7 SSW 28 35 15 19 1012.6 1012.5 0.0
24/04:30pm 29.3 25.0 9.4 29 11.1 SSW 22 35 12 19 1012.2 1012.1 0.0
24/04:00pm 30.6 26.9 6.5 22 12.9 SW 15 26 8 14 1012.3 1012.2 0.0
24/03:30pm 30.6 26.4 8.3 25 12.3 WSW 20 28 11 15 1012.5 1012.4 0.0
24/03:00pm 29.9 25.0 9.9 29 11.3 SSW 26 35 14 19 1013.0 1012.9 0.0
24/02:30pm 31.1 26.2 9.9 27 12.1 WSW 26 37 14 20 1012.9 1012.8 0.0
24/02:00pm 32.1 28.4 6.3 20 13.9 WSW 15 22 8 12 1012.5 1012.4 0.0
24/01:30pm 31.6 27.6 6.6 21 13.5 WSW 17 22 9 12 1012.9 1012.8 0.0
24/01:00pm 31.5 27.6 7.2 22 13.3 W 17 22 9 12 1013.3 1013.2 0.0
24/12:30pm 31.0 28.0 7.5 23 12.8 WSW 13 20 7 11 1013.4 1013.3 0.0
24/12:00pm 29.8 28.0 7.1 24 12.2 W 6 13 3 7 1013.9 1013.8 0.0
24/11:30am 28.9 25.7 6.9 25 11.8 WSW 13 24 7 13 1014.2 1014.1 0.0
24/11:00am 28.2 24.5 6.3 25 11.6 W 15 20 8 11 1014.3 1014.2 0.0
24/10:30am 27.2 24.4 8.6 31 10.1 W 13 19 7 10 1014.3 1014.2 0.0
24/10:00am 25.8 23.9 9.2 35 9.1 W 9 15 5 8 1014.2 1014.1 0.0
24/09:30am 24.1 22.4 10.0 41 7.8 NW 9 15 5 8 1014.4 1014.3 0.0
24/09:00am 22.0 20.5 10.5 48 6.3 NNW 9 15 5 8 1014.2 1014.1 0.0
24/08:30am 19.5 18.7 11.0 58 4.6 NNE 6 9 3 5 1014.3 1014.2 0.0
24/08:00am 17.5 17.1 11.1 66 3.5 E 4 7 2 4 1014.0 1013.9 0.0
24/07:30am 13.2 12.1 10.7 85 1.3 ESE 7 9 4 5 1014.1 1014.0 0.0
24/07:00am 10.6 10.4 8.9 89 0.8 CALM 0 0 0 0 1013.8 1013.7 0.0
24/06:30am 11.5 11.4 9.4 87 1.1 CALM 0 0 0 0 1013.6 1013.5 0.0
24/06:00am 12.0 10.3 9.7 86 1.2 SW 9 11 5 6 1012.8 1012.7 0.0
24/05:30am 12.7 12.0 10.1 84 1.3 N 4 7 2 4 1012.0 1011.9 0.0
24/05:00am 13.1 13.3 10.6 85 1.3 CALM 0 0 0 0 1012.0 1011.9 0.0
24/04:30am 13.0 11.9 10.7 86 1.2 E 7 9 4 5 1012.0 1011.9 0.0
24/04:00am 13.6 13.9 10.8 83 1.5 CALM 0 0 0 0 1012.3 1012.2 0.0
24/03:30am 14.2 12.9 11.2 82 1.6 N 9 11 5 6 1012.6 1012.5 0.0
24/03:00am 15.5 14.6 11.5 77 2.2 NE 7 9 4 5 1012.5 1012.4 0.0
24/02:30am 16.3 14.9 12.1 76 2.3 NE 11 15 6 8 1012.7 1012.6 0.0
24/02:00am 16.3 13.7 12.1 76 2.3 NNE 17 24 9 13 1013.1 1013.0 0.0
24/01:30am 16.6 14.3 11.9 74 2.6 NE 15 20 8 11 1013.4 1013.3 0.0
24/01:00am 17.0 14.3 11.7 71 2.9 ENE 17 22 9 12 1013.3 1013.2 0.0
24/12:30am 16.9 14.9 11.6 71 2.9 ENE 13 20 7 11 1013.7 1013.6 0.0
24/12:00am 16.2 15.1 11.8 75 2.4 E 9 13 5 7 1014.1 1014.0 0.0
 
Date/Time
CDT
Temp
°C
App
Temp
°C
Dew
Point
Rel
Hum
%
Delta-T
°C
Wind Press
QNH
hPa
Press
MSL
hPa
Rain
since 9 am
mm
Dir
 
Spd
km/h
Gust
km/h
Spd
kts
Gust
kts
23/11:30pm 15.9 14.7 11.7 76 2.3 NE 9 11 5 6 1014.9 1014.8 0.0
23/11:00pm 16.3 14.4 11.7 74 2.5 NNE 13 17 7 9 1015.5 1015.4 0.0
23/10:30pm 17.0 16.1 11.3 69 3.1 ENE 7 11 4 6 1015.5 1015.4 0.0
23/10:00pm 16.7 15.8 11.4 71 2.9 ENE 7 13 4 7 1015.4 1015.3 0.0
23/09:30pm 16.8 15.5 11.3 70 3.0 ENE 9 13 5 7 1015.4 1015.3 0.0
23/09:00pm 16.9 15.6 11.2 69 3.1 E 9 11 5 6 1015.1 1015.0 0.0
23/08:30pm 17.9 16.2 11.2 65 3.6 E 11 13 6 7 1015.0 1014.9 0.0
23/08:00pm 18.9 17.3 11.5 62 4.1 ESE 11 13 6 7 1014.9 1014.8 0.0
23/07:30pm 20.3 18.7 11.5 57 4.9 SE 11 15 6 8 1014.9 1014.8 0.0
23/07:00pm 21.7 19.7 11.4 52 5.7 SSE 13 17 7 9 1015.0 1014.9 0.0
23/06:30pm 22.9 20.8 11.3 48 6.5 S 13 20 7 11 1015.1 1015.0 0.0
23/06:00pm 24.0 21.7 11.7 46 7.0 S 15 20 8 11 1014.9 1014.8 0.0
23/05:30pm 25.1 21.9 11.3 42 7.8 S 19 26 10 14 1014.7 1014.6 0.0
23/05:00pm 26.8 24.3 10.9 37 9.0 SSE 15 20 8 11 1014.3 1014.2 0.0
23/04:30pm 25.8 22.4 10.4 38 8.6 SE 19 26 10 14 1014.4 1014.3 0.0
23/04:00pm 26.0 23.1 11.0 39 8.5 SSW 17 26 9 14 1014.5 1014.4 0.0
23/03:30pm 26.8 25.3 9.2 33 9.7 S 7 15 4 8 1014.6 1014.5 0.0
23/03:00pm 25.9 24.3 8.8 34 9.3 SSW 7 11 4 6 1015.1 1015.0 0.0
23/02:30pm 26.0 24.2 9.4 35 9.1 SSE 9 19 5 10 1015.2 1015.1 0.0
23/02:00pm 24.6 23.7 10.5 41 7.8 E 6 13 3 7 1015.6 1015.5 0.0
23/01:30pm 23.3 21.4 10.4 44 7.1 E 11 19 6 10 1016.1 1016.0 0.0
23/01:00pm 22.8 21.0 10.9 47 6.6 ESE 11 17 6 9 1016.5 1016.4 0.0
23/12:30pm 22.1 20.4 11.2 50 6.1 SE 11 20 6 11 1017.2 1017.1 0.0
23/12:00pm 20.5 18.4 11.2 55 5.1 E 13 24 7 13 1017.5 1017.4 0.0
23/11:30am 20.3 16.9 11.2 56 5.0 ESE 20 22 11 12 1017.8 1017.7 0.0
23/11:00am 18.5 16.4 11.1 62 4.0 ESE 13 22 7 12 1018.3 1018.2 0.0
23/10:30am 18.7 16.3 11.5 63 3.9 E 15 22 8 12 1018.7 1018.6 0.0

Other Formats:

Comma delimited format used in spreadsheet applications
http://www.bom.gov.au/fwo/IDS60801/IDS60801.95663.axf

JavaScript Object Notation format (JSON) in row-major order
http://www.bom.gov.au/fwo/IDS60801/IDS60801.95663.json